sensor_id;sensor_type;location;lat;lon;timestamp;temperature;humidity
25320;DHT22;13256;49.012;8.610;2023-06-24T00:01:57;16.90;99.90
25320;DHT22;13256;49.012;8.610;2023-06-24T00:04:27;16.90;99.90
25320;DHT22;13256;49.012;8.610;2023-06-24T00:06:54;16.90;99.90
25320;DHT22;13256;49.012;8.610;2023-06-24T00:09:26;16.80;99.90
25320;DHT22;13256;49.012;8.610;2023-06-24T00:12:19;16.80;99.90
25320;DHT22;13256;49.012;8.610;2023-06-24T00:15:01;16.80;99.90
25320;DHT22;13256;49.012;8.610;2023-06-24T00:33:39;16.60;99.90
25320;DHT22;13256;49.012;8.610;2023-06-24T00:38:58;16.40;99.90
25320;DHT22;13256;49.012;8.610;2023-06-24T00:45:09;16.40;99.90
25320;DHT22;13256;49.012;8.610;2023-06-24T00:47:40;16.20;99.90
25320;DHT22;13256;49.012;8.610;2023-06-24T02:11:33;15.10;99.90
25320;DHT22;13256;49.012;8.610;2023-06-24T02:14:03;15.10;99.90
25320;DHT22;13256;49.012;8.610;2023-06-24T02:17:00;15.10;99.90
25320;DHT22;13256;49.012;8.610;2023-06-24T02:19:44;15.00;99.90
25320;DHT22;13256;49.012;8.610;2023-06-24T02:22:44;15.00;99.90
25320;DHT22;13256;49.012;8.610;2023-06-24T02:51:09;14.70;99.90
25320;DHT22;13256;49.012;8.610;2023-06-24T02:53:41;14.70;99.90
25320;DHT22;13256;49.012;8.610;2023-06-24T02:56:15;14.80;99.90
25320;DHT22;13256;49.012;8.610;2023-06-24T03:01:41;14.90;99.90
25320;DHT22;13256;49.012;8.610;2023-06-24T03:21:28;14.60;99.90
25320;DHT22;13256;49.012;8.610;2023-06-24T03:27:48;14.50;99.90
25320;DHT22;13256;49.012;8.610;2023-06-24T03:30:17;14.50;99.90
25320;DHT22;13256;49.012;8.610;2023-06-24T03:36:46;14.30;99.90
25320;DHT22;13256;49.012;8.610;2023-06-24T03:39:17;14.40;99.90
25320;DHT22;13256;49.012;8.610;2023-06-24T03:41:47;14.30;99.90
25320;DHT22;13256;49.012;8.610;2023-06-24T03:44:20;14.30;99.90
25320;DHT22;13256;49.012;8.610;2023-06-24T03:46:47;14.30;99.90
25320;DHT22;13256;49.012;8.610;2023-06-24T03:49:33;14.30;99.90
25320;DHT22;13256;49.012;8.610;2023-06-24T03:52:02;14.30;99.90
25320;DHT22;13256;49.012;8.610;2023-06-24T03:54:38;14.40;99.90
25320;DHT22;13256;49.012;8.610;2023-06-24T03:57:07;14.40;99.90
25320;DHT22;13256;49.012;8.610;2023-06-24T03:59:36;14.30;99.90
25320;DHT22;13256;49.012;8.610;2023-06-24T04:02:05;14.30;99.90
25320;DHT22;13256;49.012;8.610;2023-06-24T04:04:37;14.30;99.90
25320;DHT22;13256;49.012;8.610;2023-06-24T04:07:04;14.30;99.90
25320;DHT22;13256;49.012;8.610;2023-06-24T04:09:34;14.30;99.90
25320;DHT22;13256;49.012;8.610;2023-06-24T04:12:08;14.30;99.90
25320;DHT22;13256;49.012;8.610;2023-06-24T04:14:35;14.20;99.90
25320;DHT22;13256;49.012;8.610;2023-06-24T04:17:08;14.20;99.90
25320;DHT22;13256;49.012;8.610;2023-06-24T04:19:34;14.20;99.90
25320;DHT22;13256;49.012;8.610;2023-06-24T04:22:08;14.20;99.90
25320;DHT22;13256;49.012;8.610;2023-06-24T04:24:37;14.20;99.90
25320;DHT22;13256;49.012;8.610;2023-06-24T04:27:53;14.20;99.90
25320;DHT22;13256;49.012;8.610;2023-06-24T04:30:19;14.20;99.90
25320;DHT22;13256;49.012;8.610;2023-06-24T04:32:47;14.30;99.90
25320;DHT22;13256;49.012;8.610;2023-06-24T04:35:17;14.30;99.90
25320;DHT22;13256;49.012;8.610;2023-06-24T04:37:44;14.40;99.90
25320;DHT22;13256;49.012;8.610;2023-06-24T04:40:19;14.40;99.90
25320;DHT22;13256;49.012;8.610;2023-06-24T04:42:48;14.50;99.90
25320;DHT22;13256;49.012;8.610;2023-06-24T04:45:19;14.50;99.90
25320;DHT22;13256;49.012;8.610;2023-06-24T04:47:55;14.50;99.90
25320;DHT22;13256;49.012;8.610;2023-06-24T04:50:26;14.50;99.90
25320;DHT22;13256;49.012;8.610;2023-06-24T04:52:53;14.50;99.90
25320;DHT22;13256;49.012;8.610;2023-06-24T04:55:29;14.50;99.90
25320;DHT22;13256;49.012;8.610;2023-06-24T04:58:00;14.60;99.90
25320;DHT22;13256;49.012;8.610;2023-06-24T05:00:26;14.60;99.90
25320;DHT22;13256;49.012;8.610;2023-06-24T05:02:53;14.70;99.90
25320;DHT22;13256;49.012;8.610;2023-06-24T05:05:21;14.80;99.90
25320;DHT22;13256;49.012;8.610;2023-06-24T05:07:50;14.80;99.90
25320;DHT22;13256;49.012;8.610;2023-06-24T05:10:18;14.90;99.90
25320;DHT22;13256;49.012;8.610;2023-06-24T05:12:49;15.00;99.90
25320;DHT22;13256;49.012;8.610;2023-06-24T05:15:18;15.00;99.90
25320;DHT22;13256;49.012;8.610;2023-06-24T05:17:47;15.10;99.90
25320;DHT22;13256;49.012;8.610;2023-06-24T05:20:15;15.20;99.90
25320;DHT22;13256;49.012;8.610;2023-06-24T05:22:44;15.30;99.90
25320;DHT22;13256;49.012;8.610;2023-06-24T05:25:14;15.40;99.90
25320;DHT22;13256;49.012;8.610;2023-06-24T05:27:41;15.50;99.90
25320;DHT22;13256;49.012;8.610;2023-06-24T05:30:08;15.60;99.90
25320;DHT22;13256;49.012;8.610;2023-06-24T05:33:03;15.70;99.90
25320;DHT22;13256;49.012;8.610;2023-06-24T05:35:31;15.80;99.90
25320;DHT22;13256;49.012;8.610;2023-06-24T05:38:01;15.90;99.90
25320;DHT22;13256;49.012;8.610;2023-06-24T05:40:31;16.00;99.90
25320;DHT22;13256;49.012;8.610;2023-06-24T05:43:01;16.10;99.90
25320;DHT22;13256;49.012;8.610;2023-06-24T05:45:30;16.20;99.90
25320;DHT22;13256;49.012;8.610;2023-06-24T05:48:05;16.30;99.90
25320;DHT22;13256;49.012;8.610;2023-06-24T05:50:32;16.40;99.90
25320;DHT22;13256;49.012;8.610;2023-06-24T05:52:59;16.50;99.90
25320;DHT22;13256;49.012;8.610;2023-06-24T05:55:26;16.60;99.90
25320;DHT22;13256;49.012;8.610;2023-06-24T05:58:00;16.70;99.90
25320;DHT22;13256;49.012;8.610;2023-06-24T06:00:27;16.80;99.90
25320;DHT22;13256;49.012;8.610;2023-06-24T06:02:56;16.90;99.90
25320;DHT22;13256;49.012;8.610;2023-06-24T06:05:25;17.00;99.90
25320;DHT22;13256;49.012;8.610;2023-06-24T06:07:52;17.10;99.90
25320;DHT22;13256;49.012;8.610;2023-06-24T06:10:20;17.20;99.90
25320;DHT22;13256;49.012;8.610;2023-06-24T06:12:49;17.30;99.90
25320;DHT22;13256;49.012;8.610;2023-06-24T06:15:17;17.40;99.90
25320;DHT22;13256;49.012;8.610;2023-06-24T06:17:48;17.60;99.90
25320;DHT22;13256;49.012;8.610;2023-06-24T06:20:15;17.70;99.90
25320;DHT22;13256;49.012;8.610;2023-06-24T06:22:42;17.80;99.90
25320;DHT22;13256;49.012;8.610;2023-06-24T06:25:15;17.90;99.90
25320;DHT22;13256;49.012;8.610;2023-06-24T06:27:42;18.00;99.90
25320;DHT22;13256;49.012;8.610;2023-06-24T06:30:14;18.10;99.90
25320;DHT22;13256;49.012;8.610;2023-06-24T06:32:44;18.30;99.90
25320;DHT22;13256;49.012;8.610;2023-06-24T06:35:14;18.30;99.90
25320;DHT22;13256;49.012;8.610;2023-06-24T06:37:42;18.50;99.90
25320;DHT22;13256;49.012;8.610;2023-06-24T06:40:10;18.60;99.90
25320;DHT22;13256;49.012;8.610;2023-06-24T06:42:39;18.60;99.90
25320;DHT22;13256;49.012;8.610;2023-06-24T06:45:09;18.80;99.90
25320;DHT22;13256;49.012;8.610;2023-06-24T06:47:40;18.90;99.90
25320;DHT22;13256;49.012;8.610;2023-06-24T06:50:07;19.00;99.90
25320;DHT22;13256;49.012;8.610;2023-06-24T06:52:35;19.10;99.90
25320;DHT22;13256;49.012;8.610;2023-06-24T06:55:04;19.20;99.90
25320;DHT22;13256;49.012;8.610;2023-06-24T06:57:32;19.30;99.90
25320;DHT22;13256;49.012;8.610;2023-06-24T07:00:01;19.40;99.90
25320;DHT22;13256;49.012;8.610;2023-06-24T07:02:28;19.50;99.90
25320;DHT22;13256;49.012;8.610;2023-06-24T07:04:55;19.60;99.90
25320;DHT22;13256;49.012;8.610;2023-06-24T07:07:23;19.80;99.90
25320;DHT22;13256;49.012;8.610;2023-06-24T07:09:50;19.90;99.90
25320;DHT22;13256;49.012;8.610;2023-06-24T07:12:20;20.00;99.90
25320;DHT22;13256;49.012;8.610;2023-06-24T07:14:49;20.20;99.90
25320;DHT22;13256;49.012;8.610;2023-06-24T07:17:20;20.30;99.90
25320;DHT22;13256;49.012;8.610;2023-06-24T07:19:48;20.50;99.90
25320;DHT22;13256;49.012;8.610;2023-06-24T07:22:16;20.70;99.90
25320;DHT22;13256;49.012;8.610;2023-06-24T07:24:45;20.90;99.90
25320;DHT22;13256;49.012;8.610;2023-06-24T07:27:15;21.00;99.90
25320;DHT22;13256;49.012;8.610;2023-06-24T07:29:44;21.20;99.90
25320;DHT22;13256;49.012;8.610;2023-06-24T07:32:14;21.40;99.90
25320;DHT22;13256;49.012;8.610;2023-06-24T07:34:46;21.50;99.90
25320;DHT22;13256;49.012;8.610;2023-06-24T07:37:15;21.60;99.90
25320;DHT22;13256;49.012;8.610;2023-06-24T07:39:51;21.80;99.90
25320;DHT22;13256;49.012;8.610;2023-06-24T07:42:18;21.90;99.90
25320;DHT22;13256;49.012;8.610;2023-06-24T07:44:50;22.10;99.90
25320;DHT22;13256;49.012;8.610;2023-06-24T07:47:19;22.30;99.90
25320;DHT22;13256;49.012;8.610;2023-06-24T07:49:48;22.40;99.90
25320;DHT22;13256;49.012;8.610;2023-06-24T07:52:41;22.60;99.90
25320;DHT22;13256;49.012;8.610;2023-06-24T07:55:11;22.70;99.90
25320;DHT22;13256;49.012;8.610;2023-06-24T07:57:44;22.90;99.90
25320;DHT22;13256;49.012;8.610;2023-06-24T08:00:13;23.00;99.90
25320;DHT22;13256;49.012;8.610;2023-06-24T08:02:43;23.20;99.90
25320;DHT22;13256;49.012;8.610;2023-06-24T08:05:11;23.30;99.90
25320;DHT22;13256;49.012;8.610;2023-06-24T08:07:44;23.50;99.90
25320;DHT22;13256;49.012;8.610;2023-06-24T08:10:12;23.70;99.90
25320;DHT22;13256;49.012;8.610;2023-06-24T08:12:44;23.80;99.90
25320;DHT22;13256;49.012;8.610;2023-06-24T08:15:12;24.00;99.90
25320;DHT22;13256;49.012;8.610;2023-06-24T08:17:43;24.10;99.90
25320;DHT22;13256;49.012;8.610;2023-06-24T08:20:14;24.30;99.90
25320;DHT22;13256;49.012;8.610;2023-06-24T08:22:42;24.50;99.90
25320;DHT22;13256;49.012;8.610;2023-06-24T08:25:09;24.70;99.90
25320;DHT22;13256;49.012;8.610;2023-06-24T08:27:38;24.80;99.90
25320;DHT22;13256;49.012;8.610;2023-06-24T08:30:08;25.00;99.90
25320;DHT22;13256;49.012;8.610;2023-06-24T08:32:35;25.10;99.90
25320;DHT22;13256;49.012;8.610;2023-06-24T08:35:04;25.20;99.90
25320;DHT22;13256;49.012;8.610;2023-06-24T08:37:33;25.30;99.90
25320;DHT22;13256;49.012;8.610;2023-06-24T08:40:00;25.50;99.90
25320;DHT22;13256;49.012;8.610;2023-06-24T08:42:27;25.60;99.90
25320;DHT22;13256;49.012;8.610;2023-06-24T08:44:54;25.80;98.60
25320;DHT22;13256;49.012;8.610;2023-06-24T08:47:28;25.80;98.80
25320;DHT22;13256;49.012;8.610;2023-06-24T08:50:05;25.90;98.00
25320;DHT22;13256;49.012;8.610;2023-06-24T08:52:36;26.10;97.40
25320;DHT22;13256;49.012;8.610;2023-06-24T08:55:06;26.20;96.30
25320;DHT22;13256;49.012;8.610;2023-06-24T08:57:35;26.40;95.30
25320;DHT22;13256;49.012;8.610;2023-06-24T09:00:04;26.50;95.60
25320;DHT22;13256;49.012;8.610;2023-06-24T09:02:38;26.60;93.30
25320;DHT22;13256;49.012;8.610;2023-06-24T09:05:06;26.70;93.80
25320;DHT22;13256;49.012;8.610;2023-06-24T09:07:34;26.70;93.10
25320;DHT22;13256;49.012;8.610;2023-06-24T09:10:01;26.90;93.00
25320;DHT22;13256;49.012;8.610;2023-06-24T09:12:34;27.00;93.00
25320;DHT22;13256;49.012;8.610;2023-06-24T09:15:02;26.90;93.20
25320;DHT22;13256;49.012;8.610;2023-06-24T09:17:33;27.00;90.60
25320;DHT22;13256;49.012;8.610;2023-06-24T09:20:04;27.10;90.90
25320;DHT22;13256;49.012;8.610;2023-06-24T09:22:34;27.10;91.90
25320;DHT22;13256;49.012;8.610;2023-06-24T09:25:01;27.20;91.40
25320;DHT22;13256;49.012;8.610;2023-06-24T09:27:32;27.20;91.70
25320;DHT22;13256;49.012;8.610;2023-06-24T09:30:15;27.30;92.80
25320;DHT22;13256;49.012;8.610;2023-06-24T09:32:44;27.50;91.40
25320;DHT22;13256;49.012;8.610;2023-06-24T09:35:11;27.60;90.00
25320;DHT22;13256;49.012;8.610;2023-06-24T09:37:38;27.50;90.10
25320;DHT22;13256;49.012;8.610;2023-06-24T09:40:09;27.70;89.40
25320;DHT22;13256;49.012;8.610;2023-06-24T09:42:36;28.00;86.50
25320;DHT22;13256;49.012;8.610;2023-06-24T09:45:06;28.20;84.50
25320;DHT22;13256;49.012;8.610;2023-06-24T09:47:33;28.50;84.40
25320;DHT22;13256;49.012;8.610;2023-06-24T09:50:02;28.60;83.60
25320;DHT22;13256;49.012;8.610;2023-06-24T09:52:31;28.70;83.80
25320;DHT22;13256;49.012;8.610;2023-06-24T09:55:01;28.90;80.40
25320;DHT22;13256;49.012;8.610;2023-06-24T09:57:35;28.90;81.30
25320;DHT22;13256;49.012;8.610;2023-06-24T10:00:03;29.10;80.60
25320;DHT22;13256;49.012;8.610;2023-06-24T10:02:32;29.40;79.90
25320;DHT22;13256;49.012;8.610;2023-06-24T10:05:00;29.50;79.50
25320;DHT22;13256;49.012;8.610;2023-06-24T10:07:28;29.60;77.00
25320;DHT22;13256;49.012;8.610;2023-06-24T10:09:55;29.70;75.90
25320;DHT22;13256;49.012;8.610;2023-06-24T10:12:22;29.80;75.10
25320;DHT22;13256;49.012;8.610;2023-06-24T10:14:55;29.80;73.10
25320;DHT22;13256;49.012;8.610;2023-06-24T10:17:23;29.80;75.60
25320;DHT22;13256;49.012;8.610;2023-06-24T10:23:51;30.10;76.40
25320;DHT22;13256;49.012;8.610;2023-06-24T10:26:26;30.40;73.10
25320;DHT22;13256;49.012;8.610;2023-06-24T10:34:32;30.90;72.00
25320;DHT22;13256;49.012;8.610;2023-06-24T10:40:03;30.90;69.20
25320;DHT22;13256;49.012;8.610;2023-06-24T10:42:39;31.10;69.10
25320;DHT22;13256;49.012;8.610;2023-06-24T10:50:06;31.70;66.70
25320;DHT22;13256;49.012;8.610;2023-06-24T10:52:45;31.80;66.20
25320;DHT22;13256;49.012;8.610;2023-06-24T10:55:16;31.90;66.10
25320;DHT22;13256;49.012;8.610;2023-06-24T10:57:46;32.00;67.40
25320;DHT22;13256;49.012;8.610;2023-06-24T11:00:16;32.30;68.60
25320;DHT22;13256;49.012;8.610;2023-06-24T11:02:45;32.10;64.70
25320;DHT22;13256;49.012;8.610;2023-06-24T11:05:14;31.90;65.20
25320;DHT22;13256;49.012;8.610;2023-06-24T11:07:57;31.90;64.00
25320;DHT22;13256;49.012;8.610;2023-06-24T11:10:47;31.90;67.90
25320;DHT22;13256;49.012;8.610;2023-06-24T11:13:25;32.20;63.50
25320;DHT22;13256;49.012;8.610;2023-06-24T11:15:59;32.10;63.50
25320;DHT22;13256;49.012;8.610;2023-06-24T11:18:42;32.10;63.00
25320;DHT22;13256;49.012;8.610;2023-06-24T11:21:09;31.90;62.70
25320;DHT22;13256;49.012;8.610;2023-06-24T11:23:43;31.70;63.00
25320;DHT22;13256;49.012;8.610;2023-06-24T11:29:59;31.40;63.50
25320;DHT22;13256;49.012;8.610;2023-06-24T11:32:48;31.70;63.70
25320;DHT22;13256;49.012;8.610;2023-06-24T11:35:21;31.90;60.40
25320;DHT22;13256;49.012;8.610;2023-06-24T11:37:58;31.90;61.40
25320;DHT22;13256;49.012;8.610;2023-06-24T11:40:30;32.00;58.50
25320;DHT22;13256;49.012;8.610;2023-06-24T11:43:01;32.10;59.90
25320;DHT22;13256;49.012;8.610;2023-06-24T11:45:31;32.10;62.50
25320;DHT22;13256;49.012;8.610;2023-06-24T11:48:02;32.30;60.10
25320;DHT22;13256;49.012;8.610;2023-06-24T11:50:31;32.50;58.80
25320;DHT22;13256;49.012;8.610;2023-06-24T11:52:58;32.40;58.90
25320;DHT22;13256;49.012;8.610;2023-06-24T11:55:28;32.50;59.30
25320;DHT22;13256;49.012;8.610;2023-06-24T11:58:03;32.50;57.70
25320;DHT22;13256;49.012;8.610;2023-06-24T12:00:39;32.50;58.10
25320;DHT22;13256;49.012;8.610;2023-06-24T12:03:11;32.70;57.80
25320;DHT22;13256;49.012;8.610;2023-06-24T12:05:39;32.20;55.80
25320;DHT22;13256;49.012;8.610;2023-06-24T12:08:12;32.20;58.40
25320;DHT22;13256;49.012;8.610;2023-06-24T12:10:40;32.40;59.00
25320;DHT22;13256;49.012;8.610;2023-06-24T12:13:07;32.70;58.40
25320;DHT22;13256;49.012;8.610;2023-06-24T12:15:35;32.70;58.50
25320;DHT22;13256;49.012;8.610;2023-06-24T12:18:02;32.70;56.20
25320;DHT22;13256;49.012;8.610;2023-06-24T12:20:32;32.70;57.80
25320;DHT22;13256;49.012;8.610;2023-06-24T12:23:09;33.00;57.60
25320;DHT22;13256;49.012;8.610;2023-06-24T12:25:39;33.20;57.00
25320;DHT22;13256;49.012;8.610;2023-06-24T12:28:10;32.90;57.30
25320;DHT22;13256;49.012;8.610;2023-06-24T12:30:37;33.00;57.30
25320;DHT22;13256;49.012;8.610;2023-06-24T12:33:06;32.80;56.00
25320;DHT22;13256;49.012;8.610;2023-06-24T12:35:35;33.10;57.60
25320;DHT22;13256;49.012;8.610;2023-06-24T12:38:03;33.20;58.10
25320;DHT22;13256;49.012;8.610;2023-06-24T12:40:36;33.20;56.30
25320;DHT22;13256;49.012;8.610;2023-06-24T12:43:04;33.00;56.90
25320;DHT22;13256;49.012;8.610;2023-06-24T12:45:33;33.00;54.80
25320;DHT22;13256;49.012;8.610;2023-06-24T12:48:03;33.20;56.50
25320;DHT22;13256;49.012;8.610;2023-06-24T12:50:31;33.50;55.10
25320;DHT22;13256;49.012;8.610;2023-06-24T12:53:03;33.60;52.40
25320;DHT22;13256;49.012;8.610;2023-06-24T12:55:30;33.60;53.40
25320;DHT22;13256;49.012;8.610;2023-06-24T12:57:57;33.60;51.50
25320;DHT22;13256;49.012;8.610;2023-06-24T13:00:34;33.70;53.40
25320;DHT22;13256;49.012;8.610;2023-06-24T13:03:04;33.90;53.60
25320;DHT22;13256;49.012;8.610;2023-06-24T13:05:33;34.00;54.50
25320;DHT22;13256;49.012;8.610;2023-06-24T13:08:00;34.20;53.30
25320;DHT22;13256;49.012;8.610;2023-06-24T13:10:29;34.30;56.00
25320;DHT22;13256;49.012;8.610;2023-06-24T13:12:56;34.50;54.40
25320;DHT22;13256;49.012;8.610;2023-06-24T13:15:23;34.40;53.00
25320;DHT22;13256;49.012;8.610;2023-06-24T13:17:50;34.20;53.00
25320;DHT22;13256;49.012;8.610;2023-06-24T13:20:17;34.30;53.60
25320;DHT22;13256;49.012;8.610;2023-06-24T13:22:46;34.50;50.60
25320;DHT22;13256;49.012;8.610;2023-06-24T13:25:13;34.50;53.60
25320;DHT22;13256;49.012;8.610;2023-06-24T13:27:44;34.50;54.40
25320;DHT22;13256;49.012;8.610;2023-06-24T13:30:12;34.50;51.90
25320;DHT22;13256;49.012;8.610;2023-06-24T13:32:42;34.50;53.60
25320;DHT22;13256;49.012;8.610;2023-06-24T13:35:10;34.30;53.30
25320;DHT22;13256;49.012;8.610;2023-06-24T13:37:37;34.50;51.30
25320;DHT22;13256;49.012;8.610;2023-06-24T13:40:06;34.60;52.80
25320;DHT22;13256;49.012;8.610;2023-06-24T13:42:33;34.80;52.10
25320;DHT22;13256;49.012;8.610;2023-06-24T13:45:00;34.70;52.30
25320;DHT22;13256;49.012;8.610;2023-06-24T13:47:27;34.90;53.20
25320;DHT22;13256;49.012;8.610;2023-06-24T13:49:57;35.00;50.60
25320;DHT22;13256;49.012;8.610;2023-06-24T13:52:26;35.10;51.70
25320;DHT22;13256;49.012;8.610;2023-06-24T13:54:54;35.30;51.50
25320;DHT22;13256;49.012;8.610;2023-06-24T13:57:21;35.20;49.40
25320;DHT22;13256;49.012;8.610;2023-06-24T13:59:48;35.20;49.20
25320;DHT22;13256;49.012;8.610;2023-06-24T14:02:15;34.80;48.70
25320;DHT22;13256;49.012;8.610;2023-06-24T14:04:43;34.40;48.90
25320;DHT22;13256;49.012;8.610;2023-06-24T14:07:10;34.20;49.40
25320;DHT22;13256;49.012;8.610;2023-06-24T14:09:38;34.00;50.00
25320;DHT22;13256;49.012;8.610;2023-06-24T14:12:08;34.20;48.90
25320;DHT22;13256;49.012;8.610;2023-06-24T14:14:36;34.20;51.10
25320;DHT22;13256;49.012;8.610;2023-06-24T14:17:10;34.30;50.40
25320;DHT22;13256;49.012;8.610;2023-06-24T14:19:43;34.50;49.80
25320;DHT22;13256;49.012;8.610;2023-06-24T14:22:10;34.20;49.70
25320;DHT22;13256;49.012;8.610;2023-06-24T14:24:45;34.20;47.60
25320;DHT22;13256;49.012;8.610;2023-06-24T14:27:14;34.10;47.00
25320;DHT22;13256;49.012;8.610;2023-06-24T14:29:42;34.20;48.00
25320;DHT22;13256;49.012;8.610;2023-06-24T14:32:09;34.00;48.80
25320;DHT22;13256;49.012;8.610;2023-06-24T14:34:36;34.30;50.10
25320;DHT22;13256;49.012;8.610;2023-06-24T14:37:03;34.60;49.30
25320;DHT22;13256;49.012;8.610;2023-06-24T14:39:30;34.70;47.20
25320;DHT22;13256;49.012;8.610;2023-06-24T14:41:57;34.60;46.50
25320;DHT22;13256;49.012;8.610;2023-06-24T14:44:24;34.70;48.10
25320;DHT22;13256;49.012;8.610;2023-06-24T14:46:51;34.80;47.30
25320;DHT22;13256;49.012;8.610;2023-06-24T14:49:20;34.80;46.30
25320;DHT22;13256;49.012;8.610;2023-06-24T14:51:46;34.80;45.90
25320;DHT22;13256;49.012;8.610;2023-06-24T14:54:14;34.70;45.90
25320;DHT22;13256;49.012;8.610;2023-06-24T14:56:42;34.70;45.70
25320;DHT22;13256;49.012;8.610;2023-06-24T14:59:09;34.70;44.50
25320;DHT22;13256;49.012;8.610;2023-06-24T15:01:36;34.50;45.30
25320;DHT22;13256;49.012;8.610;2023-06-24T15:04:03;34.50;47.10
25320;DHT22;13256;49.012;8.610;2023-06-24T15:06:31;34.50;47.40
25320;DHT22;13256;49.012;8.610;2023-06-24T15:08:57;34.50;47.20
25320;DHT22;13256;49.012;8.610;2023-06-24T15:11:24;34.60;47.80
25320;DHT22;13256;49.012;8.610;2023-06-24T15:13:52;34.70;46.40
25320;DHT22;13256;49.012;8.610;2023-06-24T15:16:19;34.70;46.90
25320;DHT22;13256;49.012;8.610;2023-06-24T15:18:47;34.70;46.10
25320;DHT22;13256;49.012;8.610;2023-06-24T15:21:15;34.70;45.80
25320;DHT22;13256;49.012;8.610;2023-06-24T15:24:04;34.60;47.30
25320;DHT22;13256;49.012;8.610;2023-06-24T15:26:31;34.40;47.10
25320;DHT22;13256;49.012;8.610;2023-06-24T15:29:01;34.30;47.30
25320;DHT22;13256;49.012;8.610;2023-06-24T15:31:30;34.20;46.30
25320;DHT22;13256;49.012;8.610;2023-06-24T15:33:58;33.90;46.40
25320;DHT22;13256;49.012;8.610;2023-06-24T15:36:25;33.80;47.30
25320;DHT22;13256;49.012;8.610;2023-06-24T15:39:00;33.90;48.20
25320;DHT22;13256;49.012;8.610;2023-06-24T15:41:27;33.80;47.10
25320;DHT22;13256;49.012;8.610;2023-06-24T15:43:54;33.80;46.70
25320;DHT22;13256;49.012;8.610;2023-06-24T15:46:28;33.50;47.30
25320;DHT22;13256;49.012;8.610;2023-06-24T15:48:55;33.40;46.60
25320;DHT22;13256;49.012;8.610;2023-06-24T15:51:22;33.30;48.20
25320;DHT22;13256;49.012;8.610;2023-06-24T15:53:49;33.20;48.80
25320;DHT22;13256;49.012;8.610;2023-06-24T15:56:16;33.00;47.80
25320;DHT22;13256;49.012;8.610;2023-06-24T15:58:43;32.90;49.30
25320;DHT22;13256;49.012;8.610;2023-06-24T16:01:13;32.70;48.00
25320;DHT22;13256;49.012;8.610;2023-06-24T16:03:40;32.60;49.40
25320;DHT22;13256;49.012;8.610;2023-06-24T16:06:07;32.40;49.10
25320;DHT22;13256;49.012;8.610;2023-06-24T16:08:35;32.30;50.20
25320;DHT22;13256;49.012;8.610;2023-06-24T16:11:02;32.20;50.30
25320;DHT22;13256;49.012;8.610;2023-06-24T16:13:33;32.10;50.20
25320;DHT22;13256;49.012;8.610;2023-06-24T16:16:04;31.90;50.80
25320;DHT22;13256;49.012;8.610;2023-06-24T16:18:57;31.60;50.00
25320;DHT22;13256;49.012;8.610;2023-06-24T16:21:26;31.50;50.70
25320;DHT22;13256;49.012;8.610;2023-06-24T16:23:56;31.40;51.50
25320;DHT22;13256;49.012;8.610;2023-06-24T16:26:24;31.10;52.60
25320;DHT22;13256;49.012;8.610;2023-06-24T16:28:51;31.10;53.10
25320;DHT22;13256;49.012;8.610;2023-06-24T16:31:23;30.90;52.00
25320;DHT22;13256;49.012;8.610;2023-06-24T16:33:53;30.80;53.30
25320;DHT22;13256;49.012;8.610;2023-06-24T16:36:20;30.80;53.90
25320;DHT22;13256;49.012;8.610;2023-06-24T16:38:46;30.90;53.60
25320;DHT22;13256;49.012;8.610;2023-06-24T16:41:16;30.70;53.80
25320;DHT22;13256;49.012;8.610;2023-06-24T16:44:11;30.60;53.90
25320;DHT22;13256;49.012;8.610;2023-06-24T16:46:43;30.50;54.80
25320;DHT22;13256;49.012;8.610;2023-06-24T16:49:10;30.40;56.10
25320;DHT22;13256;49.012;8.610;2023-06-24T16:51:40;30.30;54.50
25320;DHT22;13256;49.012;8.610;2023-06-24T16:54:07;30.20;56.50
25320;DHT22;13256;49.012;8.610;2023-06-24T16:56:34;30.10;55.00
25320;DHT22;13256;49.012;8.610;2023-06-24T16:59:02;30.10;55.10
25320;DHT22;13256;49.012;8.610;2023-06-24T17:01:29;29.90;55.70
25320;DHT22;13256;49.012;8.610;2023-06-24T17:04:00;29.70;55.50
25320;DHT22;13256;49.012;8.610;2023-06-24T17:06:29;29.70;55.80
25320;DHT22;13256;49.012;8.610;2023-06-24T17:09:00;29.60;55.60
25320;DHT22;13256;49.012;8.610;2023-06-24T17:11:27;29.50;56.40
25320;DHT22;13256;49.012;8.610;2023-06-24T17:13:54;29.40;56.70
25320;DHT22;13256;49.012;8.610;2023-06-24T17:16:21;29.40;57.70
25320;DHT22;13256;49.012;8.610;2023-06-24T17:18:52;29.40;56.80
25320;DHT22;13256;49.012;8.610;2023-06-24T17:21:22;29.30;57.60
25320;DHT22;13256;49.012;8.610;2023-06-24T17:23:53;29.30;56.90
25320;DHT22;13256;49.012;8.610;2023-06-24T17:26:19;29.20;56.30
25320;DHT22;13256;49.012;8.610;2023-06-24T17:28:46;29.10;56.20
25320;DHT22;13256;49.012;8.610;2023-06-24T17:31:13;29.00;56.90
25320;DHT22;13256;49.012;8.610;2023-06-24T17:33:42;28.80;57.30
25320;DHT22;13256;49.012;8.610;2023-06-24T17:36:09;28.80;57.90
25320;DHT22;13256;49.012;8.610;2023-06-24T17:38:36;28.70;58.00
25320;DHT22;13256;49.012;8.610;2023-06-24T17:41:03;28.70;58.40
25320;DHT22;13256;49.012;8.610;2023-06-24T17:43:30;28.70;58.00
25320;DHT22;13256;49.012;8.610;2023-06-24T17:45:58;28.60;59.40
25320;DHT22;13256;49.012;8.610;2023-06-24T17:48:27;28.50;58.10
25320;DHT22;13256;49.012;8.610;2023-06-24T17:51:21;28.40;58.20
25320;DHT22;13256;49.012;8.610;2023-06-24T17:53:48;28.30;59.00
25320;DHT22;13256;49.012;8.610;2023-06-24T17:56:16;28.30;59.00
25320;DHT22;13256;49.012;8.610;2023-06-24T17:58:49;28.20;58.90
25320;DHT22;13256;49.012;8.610;2023-06-24T18:01:17;28.20;58.80
25320;DHT22;13256;49.012;8.610;2023-06-24T18:03:44;28.10;58.80
25320;DHT22;13256;49.012;8.610;2023-06-24T18:06:16;28.10;58.70
25320;DHT22;13256;49.012;8.610;2023-06-24T18:08:46;28.00;58.90
25320;DHT22;13256;49.012;8.610;2023-06-24T18:11:17;27.90;59.10
25320;DHT22;13256;49.012;8.610;2023-06-24T18:13:43;27.80;60.30
25320;DHT22;13256;49.012;8.610;2023-06-24T18:16:17;27.80;60.80
25320;DHT22;13256;49.012;8.610;2023-06-24T18:18:44;27.70;60.90
25320;DHT22;13256;49.012;8.610;2023-06-24T18:21:20;27.70;61.30
25320;DHT22;13256;49.012;8.610;2023-06-24T18:23:48;27.60;61.40
25320;DHT22;13256;49.012;8.610;2023-06-24T18:26:18;27.60;61.80
25320;DHT22;13256;49.012;8.610;2023-06-24T18:28:45;27.40;60.60
25320;DHT22;13256;49.012;8.610;2023-06-24T18:31:13;27.30;60.80
25320;DHT22;13256;49.012;8.610;2023-06-24T18:33:39;27.20;61.20
25320;DHT22;13256;49.012;8.610;2023-06-24T18:36:06;27.10;62.80
25320;DHT22;13256;49.012;8.610;2023-06-24T18:38:33;27.00;62.60
25320;DHT22;13256;49.012;8.610;2023-06-24T18:41:00;27.10;62.70
25320;DHT22;13256;49.012;8.610;2023-06-24T18:43:27;26.90;63.30
25320;DHT22;13256;49.012;8.610;2023-06-24T18:45:54;26.90;63.20
25320;DHT22;13256;49.012;8.610;2023-06-24T18:48:21;26.80;63.20